sensor_id;sensor_type;location;lat;lon;timestamp;P1;durP1;ratioP1;P2;durP2;ratioP2
74959;SDS011;63518;49.572;1.106;2023-02-07T00:01:21;8.57;;;2.95;;
74959;SDS011;63518;49.572;1.106;2023-02-07T00:03:49;13.50;;;4.15;;
74959;SDS011;63518;49.572;1.106;2023-02-07T00:06:18;16.30;;;4.18;;
74959;SDS011;63518;49.572;1.106;2023-02-07T00:08:55;11.80;;;3.15;;
74959;SDS011;63518;49.572;1.106;2023-02-07T00:11:25;15.70;;;5.25;;
74959;SDS011;63518;49.572;1.106;2023-02-07T00:13:53;15.82;;;4.55;;
74959;SDS011;63518;49.572;1.106;2023-02-07T00:16:22;25.57;;;8.50;;
74959;SDS011;63518;49.572;1.106;2023-02-07T00:18:55;21.05;;;7.82;;
74959;SDS011;63518;49.572;1.106;2023-02-07T00:21:26;19.83;;;7.07;;
74959;SDS011;63518;49.572;1.106;2023-02-07T00:23:55;19.20;;;6.80;;
74959;SDS011;63518;49.572;1.106;2023-02-07T00:26:24;20.27;;;6.90;;
74959;SDS011;63518;49.572;1.106;2023-02-07T00:28:53;18.75;;;7.35;;
74959;SDS011;63518;49.572;1.106;2023-02-07T00:31:22;16.50;;;6.80;;
74959;SDS011;63518;49.572;1.106;2023-02-07T00:33:53;13.93;;;4.25;;
74959;SDS011;63518;49.572;1.106;2023-02-07T00:36:22;15.70;;;3.95;;
74959;SDS011;63518;49.572;1.106;2023-02-07T00:38:57;10.82;;;3.65;;
74959;SDS011;63518;49.572;1.106;2023-02-07T00:41:26;13.45;;;3.60;;
74959;SDS011;63518;49.572;1.106;2023-02-07T00:43:53;9.88;;;2.95;;
74959;SDS011;63518;49.572;1.106;2023-02-07T00:46:22;9.95;;;2.38;;
74959;SDS011;63518;49.572;1.106;2023-02-07T00:48:50;13.48;;;4.05;;
74959;SDS011;63518;49.572;1.106;2023-02-07T00:51:17;11.65;;;3.83;;
74959;SDS011;63518;49.572;1.106;2023-02-07T00:53:45;9.00;;;3.33;;
74959;SDS011;63518;49.572;1.106;2023-02-07T00:56:13;6.50;;;2.45;;
74959;SDS011;63518;49.572;1.106;2023-02-07T00:58:42;9.95;;;3.42;;
74959;SDS011;63518;49.572;1.106;2023-02-07T01:01:09;14.23;;;2.95;;
74959;SDS011;63518;49.572;1.106;2023-02-07T01:03:36;11.15;;;3.30;;
74959;SDS011;63518;49.572;1.106;2023-02-07T01:06:04;9.73;;;2.72;;
74959;SDS011;63518;49.572;1.106;2023-02-07T01:21:19;2.38;;;0.85;;
74959;SDS011;63518;49.572;1.106;2023-02-07T01:23:49;4.32;;;1.40;;
74959;SDS011;63518;49.572;1.106;2023-02-07T01:26:23;9.68;;;2.15;;
74959;SDS011;63518;49.572;1.106;2023-02-07T01:28:55;5.93;;;2.20;;
74959;SDS011;63518;49.572;1.106;2023-02-07T01:33:56;3.35;;;0.98;;
74959;SDS011;63518;49.572;1.106;2023-02-07T01:36:27;6.75;;;1.92;;
74959;SDS011;63518;49.572;1.106;2023-02-07T01:38:57;6.20;;;2.08;;
74959;SDS011;63518;49.572;1.106;2023-02-07T01:41:25;9.45;;;3.38;;
74959;SDS011;63518;49.572;1.106;2023-02-07T01:44:02;6.15;;;2.17;;
74959;SDS011;63518;49.572;1.106;2023-02-07T01:46:34;5.57;;;1.50;;
74959;SDS011;63518;49.572;1.106;2023-02-07T01:49:07;4.60;;;1.55;;
74959;SDS011;63518;49.572;1.106;2023-02-07T01:51:37;6.43;;;1.63;;
74959;SDS011;63518;49.572;1.106;2023-02-07T01:54:10;5.20;;;2.00;;
74959;SDS011;63518;49.572;1.106;2023-02-07T01:56:42;6.72;;;1.88;;
74959;SDS011;63518;49.572;1.106;2023-02-07T01:59:12;4.53;;;1.30;;
74959;SDS011;63518;49.572;1.106;2023-02-07T02:01:41;9.85;;;2.40;;
74959;SDS011;63518;49.572;1.106;2023-02-07T02:04:10;8.98;;;2.03;;
74959;SDS011;63518;49.572;1.106;2023-02-07T02:06:38;7.32;;;2.83;;
74959;SDS011;63518;49.572;1.106;2023-02-07T02:09:07;14.90;;;3.45;;
74959;SDS011;63518;49.572;1.106;2023-02-07T02:26:03;3.80;;;1.33;;
74959;SDS011;63518;49.572;1.106;2023-02-07T02:40:02;12.07;;;3.22;;
74959;SDS011;63518;49.572;1.106;2023-02-07T02:42:46;10.43;;;3.35;;
74959;SDS011;63518;49.572;1.106;2023-02-07T02:45:17;4.97;;;2.38;;
74959;SDS011;63518;49.572;1.106;2023-02-07T02:47:51;6.88;;;1.95;;
74959;SDS011;63518;49.572;1.106;2023-02-07T02:50:26;16.05;;;4.40;;
74959;SDS011;63518;49.572;1.106;2023-02-07T02:52:55;7.70;;;2.55;;
74959;SDS011;63518;49.572;1.106;2023-02-07T02:58:25;5.15;;;1.58;;
74959;SDS011;63518;49.572;1.106;2023-02-07T03:09:46;4.50;;;1.25;;
74959;SDS011;63518;49.572;1.106;2023-02-07T03:15:01;10.95;;;3.55;;
74959;SDS011;63518;49.572;1.106;2023-02-07T03:22:52;12.27;;;3.25;;
74959;SDS011;63518;49.572;1.106;2023-02-07T03:25:23;11.82;;;3.17;;
74959;SDS011;63518;49.572;1.106;2023-02-07T03:27:53;9.02;;;3.15;;
74959;SDS011;63518;49.572;1.106;2023-02-07T03:30:23;13.93;;;3.95;;
74959;SDS011;63518;49.572;1.106;2023-02-07T03:32:55;12.32;;;3.60;;
74959;SDS011;63518;49.572;1.106;2023-02-07T03:35:27;9.05;;;3.25;;
74959;SDS011;63518;49.572;1.106;2023-02-07T03:37:59;8.48;;;3.45;;
74959;SDS011;63518;49.572;1.106;2023-02-07T03:40:28;7.07;;;2.65;;
74959;SDS011;63518;49.572;1.106;2023-02-07T03:45:36;11.57;;;3.42;;
74959;SDS011;63518;49.572;1.106;2023-02-07T03:48:04;10.75;;;3.22;;
74959;SDS011;63518;49.572;1.106;2023-02-07T03:50:31;16.55;;;4.72;;
74959;SDS011;63518;49.572;1.106;2023-02-07T03:52:59;13.63;;;3.90;;
74959;SDS011;63518;49.572;1.106;2023-02-07T03:55:26;11.40;;;3.63;;
74959;SDS011;63518;49.572;1.106;2023-02-07T03:57:54;14.57;;;3.65;;
74959;SDS011;63518;49.572;1.106;2023-02-07T04:00:25;11.23;;;4.55;;
74959;SDS011;63518;49.572;1.106;2023-02-07T04:02:54;11.77;;;3.28;;
74959;SDS011;63518;49.572;1.106;2023-02-07T04:05:21;9.98;;;3.20;;
74959;SDS011;63518;49.572;1.106;2023-02-07T04:07:49;8.23;;;3.50;;
74959;SDS011;63518;49.572;1.106;2023-02-07T04:10:16;12.80;;;3.53;;
74959;SDS011;63518;49.572;1.106;2023-02-07T04:12:43;10.68;;;4.05;;
74959;SDS011;63518;49.572;1.106;2023-02-07T04:15:11;13.73;;;4.07;;
74959;SDS011;63518;49.572;1.106;2023-02-07T04:17:38;14.68;;;4.25;;
74959;SDS011;63518;49.572;1.106;2023-02-07T04:20:06;20.75;;;5.07;;
74959;SDS011;63518;49.572;1.106;2023-02-07T04:22:34;19.08;;;5.55;;
74959;SDS011;63518;49.572;1.106;2023-02-07T04:25:01;13.88;;;4.75;;
74959;SDS011;63518;49.572;1.106;2023-02-07T04:27:29;13.93;;;4.63;;
74959;SDS011;63518;49.572;1.106;2023-02-07T04:29:56;8.60;;;2.97;;
74959;SDS011;63518;49.572;1.106;2023-02-07T04:32:23;16.33;;;4.35;;
74959;SDS011;63518;49.572;1.106;2023-02-07T04:34:50;11.38;;;3.80;;
74959;SDS011;63518;49.572;1.106;2023-02-07T04:37:18;15.27;;;3.78;;
74959;SDS011;63518;49.572;1.106;2023-02-07T04:39:45;13.48;;;4.03;;
74959;SDS011;63518;49.572;1.106;2023-02-07T04:42:12;13.38;;;4.10;;
74959;SDS011;63518;49.572;1.106;2023-02-07T04:44:40;16.38;;;4.32;;
74959;SDS011;63518;49.572;1.106;2023-02-07T04:47:07;17.00;;;4.75;;
74959;SDS011;63518;49.572;1.106;2023-02-07T04:49:34;17.10;;;4.03;;
74959;SDS011;63518;49.572;1.106;2023-02-07T04:52:01;15.90;;;2.65;;
74959;SDS011;63518;49.572;1.106;2023-02-07T04:54:28;12.23;;;3.38;;
74959;SDS011;63518;49.572;1.106;2023-02-07T04:56:55;13.93;;;4.38;;
74959;SDS011;63518;49.572;1.106;2023-02-07T04:59:23;13.60;;;3.85;;
74959;SDS011;63518;49.572;1.106;2023-02-07T05:01:50;17.17;;;3.80;;
74959;SDS011;63518;49.572;1.106;2023-02-07T05:04:17;8.77;;;2.65;;
74959;SDS011;63518;49.572;1.106;2023-02-07T05:06:44;11.50;;;3.15;;
74959;SDS011;63518;49.572;1.106;2023-02-07T05:09:11;6.40;;;2.40;;
74959;SDS011;63518;49.572;1.106;2023-02-07T05:11:39;8.77;;;2.63;;
74959;SDS011;63518;49.572;1.106;2023-02-07T05:14:06;8.00;;;3.78;;
74959;SDS011;63518;49.572;1.106;2023-02-07T05:16:33;4.70;;;1.20;;
74959;SDS011;63518;49.572;1.106;2023-02-07T05:19:00;5.22;;;1.40;;
74959;SDS011;63518;49.572;1.106;2023-02-07T05:21:28;11.05;;;2.92;;
74959;SDS011;63518;49.572;1.106;2023-02-07T05:23:55;8.38;;;2.60;;
74959;SDS011;63518;49.572;1.106;2023-02-07T05:26:22;6.75;;;2.63;;
74959;SDS011;63518;49.572;1.106;2023-02-07T05:28:49;7.45;;;2.72;;
74959;SDS011;63518;49.572;1.106;2023-02-07T05:31:17;9.32;;;2.75;;
74959;SDS011;63518;49.572;1.106;2023-02-07T05:33:44;5.30;;;1.75;;
74959;SDS011;63518;49.572;1.106;2023-02-07T05:36:11;6.00;;;2.20;;
74959;SDS011;63518;49.572;1.106;2023-02-07T05:38:38;12.10;;;2.50;;
74959;SDS011;63518;49.572;1.106;2023-02-07T05:41:08;9.32;;;2.80;;
74959;SDS011;63518;49.572;1.106;2023-02-07T05:43:36;7.00;;;2.85;;
74959;SDS011;63518;49.572;1.106;2023-02-07T05:46:03;8.32;;;2.72;;
74959;SDS011;63518;49.572;1.106;2023-02-07T05:48:30;4.82;;;2.40;;
74959;SDS011;63518;49.572;1.106;2023-02-07T05:50:57;6.55;;;2.00;;
74959;SDS011;63518;49.572;1.106;2023-02-07T05:53:25;16.73;;;3.17;;
74959;SDS011;63518;49.572;1.106;2023-02-07T05:55:52;9.25;;;3.88;;
74959;SDS011;63518;49.572;1.106;2023-02-07T05:58:19;9.63;;;2.72;;
74959;SDS011;63518;49.572;1.106;2023-02-07T06:00:46;6.80;;;3.13;;
74959;SDS011;63518;49.572;1.106;2023-02-07T06:03:14;4.75;;;2.00;;
74959;SDS011;63518;49.572;1.106;2023-02-07T06:05:41;6.35;;;2.35;;
74959;SDS011;63518;49.572;1.106;2023-02-07T06:08:09;6.75;;;2.78;;
74959;SDS011;63518;49.572;1.106;2023-02-07T06:10:36;8.07;;;3.05;;
74959;SDS011;63518;49.572;1.106;2023-02-07T06:13:04;9.27;;;3.03;;
74959;SDS011;63518;49.572;1.106;2023-02-07T06:15:32;6.90;;;2.88;;
74959;SDS011;63518;49.572;1.106;2023-02-07T06:17:59;8.85;;;4.15;;
74959;SDS011;63518;49.572;1.106;2023-02-07T06:20:26;8.93;;;2.88;;
74959;SDS011;63518;49.572;1.106;2023-02-07T06:22:54;6.85;;;2.13;;
74959;SDS011;63518;49.572;1.106;2023-02-07T06:25:21;8.45;;;2.13;;
74959;SDS011;63518;49.572;1.106;2023-02-07T06:27:48;6.60;;;2.28;;
74959;SDS011;63518;49.572;1.106;2023-02-07T06:30:15;6.18;;;2.25;;
74959;SDS011;63518;49.572;1.106;2023-02-07T06:32:43;8.77;;;2.70;;
74959;SDS011;63518;49.572;1.106;2023-02-07T06:35:10;10.82;;;3.53;;
74959;SDS011;63518;49.572;1.106;2023-02-07T06:37:37;3.72;;;1.25;;
74959;SDS011;63518;49.572;1.106;2023-02-07T06:40:04;7.47;;;2.28;;
74959;SDS011;63518;49.572;1.106;2023-02-07T06:42:32;13.57;;;4.07;;
74959;SDS011;63518;49.572;1.106;2023-02-07T06:45:02;7.75;;;2.65;;
74959;SDS011;63518;49.572;1.106;2023-02-07T06:47:30;9.02;;;4.25;;
74959;SDS011;63518;49.572;1.106;2023-02-07T06:49:57;5.53;;;1.85;;
74959;SDS011;63518;49.572;1.106;2023-02-07T06:52:24;9.32;;;2.67;;
74959;SDS011;63518;49.572;1.106;2023-02-07T06:54:51;6.78;;;2.53;;
74959;SDS011;63518;49.572;1.106;2023-02-07T06:57:19;9.95;;;2.67;;
74959;SDS011;63518;49.572;1.106;2023-02-07T06:59:48;10.68;;;3.08;;
74959;SDS011;63518;49.572;1.106;2023-02-07T07:02:15;9.65;;;3.22;;
74959;SDS011;63518;49.572;1.106;2023-02-07T07:04:43;8.88;;;3.13;;
74959;SDS011;63518;49.572;1.106;2023-02-07T07:07:10;11.23;;;4.90;;
74959;SDS011;63518;49.572;1.106;2023-02-07T07:09:37;7.70;;;3.03;;
74959;SDS011;63518;49.572;1.106;2023-02-07T07:12:04;10.18;;;2.97;;
74959;SDS011;63518;49.572;1.106;2023-02-07T07:14:31;19.02;;;5.38;;
74959;SDS011;63518;49.572;1.106;2023-02-07T07:16:59;14.80;;;4.88;;
74959;SDS011;63518;49.572;1.106;2023-02-07T07:19:26;16.75;;;3.58;;
74959;SDS011;63518;49.572;1.106;2023-02-07T07:21:53;11.73;;;4.00;;
74959;SDS011;63518;49.572;1.106;2023-02-07T07:24:21;20.05;;;5.95;;
74959;SDS011;63518;49.572;1.106;2023-02-07T07:26:48;18.80;;;6.00;;
74959;SDS011;63518;49.572;1.106;2023-02-07T07:29:18;19.67;;;5.22;;
74959;SDS011;63518;49.572;1.106;2023-02-07T07:31:46;13.10;;;4.78;;
74959;SDS011;63518;49.572;1.106;2023-02-07T07:34:14;14.25;;;3.88;;
74959;SDS011;63518;49.572;1.106;2023-02-07T07:36:41;14.82;;;3.65;;
74959;SDS011;63518;49.572;1.106;2023-02-07T07:39:11;10.98;;;4.70;;
74959;SDS011;63518;49.572;1.106;2023-02-07T07:41:39;13.07;;;4.78;;
74959;SDS011;63518;49.572;1.106;2023-02-07T07:44:06;8.25;;;4.05;;
74959;SDS011;63518;49.572;1.106;2023-02-07T07:46:33;17.58;;;5.45;;
74959;SDS011;63518;49.572;1.106;2023-02-07T07:49:00;16.08;;;5.00;;
74959;SDS011;63518;49.572;1.106;2023-02-07T07:51:27;19.85;;;4.78;;
74959;SDS011;63518;49.572;1.106;2023-02-07T07:53:54;16.17;;;5.60;;
74959;SDS011;63518;49.572;1.106;2023-02-07T07:58:48;16.42;;;4.88;;
74959;SDS011;63518;49.572;1.106;2023-02-07T08:01:16;16.67;;;5.13;;
74959;SDS011;63518;49.572;1.106;2023-02-07T08:03:44;10.25;;;3.78;;
74959;SDS011;63518;49.572;1.106;2023-02-07T08:06:11;18.67;;;3.55;;
74959;SDS011;63518;49.572;1.106;2023-02-07T08:08:39;14.95;;;4.63;;
74959;SDS011;63518;49.572;1.106;2023-02-07T08:11:08;16.27;;;5.50;;
74959;SDS011;63518;49.572;1.106;2023-02-07T08:13:39;21.17;;;5.10;;
74959;SDS011;63518;49.572;1.106;2023-02-07T08:16:06;12.15;;;4.32;;
74959;SDS011;63518;49.572;1.106;2023-02-07T08:18:34;10.02;;;3.38;;
74959;SDS011;63518;49.572;1.106;2023-02-07T08:21:01;11.23;;;4.03;;
74959;SDS011;63518;49.572;1.106;2023-02-07T08:23:28;7.68;;;2.88;;
74959;SDS011;63518;49.572;1.106;2023-02-07T08:25:55;13.18;;;3.90;;
74959;SDS011;63518;49.572;1.106;2023-02-07T08:28:23;24.23;;;6.25;;
74959;SDS011;63518;49.572;1.106;2023-02-07T08:30:50;14.73;;;4.53;;
74959;SDS011;63518;49.572;1.106;2023-02-07T08:33:17;17.67;;;4.55;;
74959;SDS011;63518;49.572;1.106;2023-02-07T08:35:45;23.23;;;7.15;;
74959;SDS011;63518;49.572;1.106;2023-02-07T08:38:12;8.27;;;3.10;;
74959;SDS011;63518;49.572;1.106;2023-02-07T08:40:39;13.18;;;4.75;;
74959;SDS011;63518;49.572;1.106;2023-02-07T08:43:06;16.42;;;5.22;;
74959;SDS011;63518;49.572;1.106;2023-02-07T08:45:38;5.32;;;3.25;;
74959;SDS011;63518;49.572;1.106;2023-02-07T08:48:07;10.60;;;4.07;;
74959;SDS011;63518;49.572;1.106;2023-02-07T08:50:34;14.23;;;5.03;;
74959;SDS011;63518;49.572;1.106;2023-02-07T08:53:01;7.10;;;3.28;;
74959;SDS011;63518;49.572;1.106;2023-02-07T08:55:28;17.10;;;4.47;;
74959;SDS011;63518;49.572;1.106;2023-02-07T08:57:56;5.75;;;2.25;;
74959;SDS011;63518;49.572;1.106;2023-02-07T09:00:24;9.27;;;3.47;;
74959;SDS011;63518;49.572;1.106;2023-02-07T09:02:51;8.35;;;3.63;;
74959;SDS011;63518;49.572;1.106;2023-02-07T09:05:19;9.73;;;3.55;;
74959;SDS011;63518;49.572;1.106;2023-02-07T09:07:46;7.80;;;3.05;;
74959;SDS011;63518;49.572;1.106;2023-02-07T09:10:14;14.93;;;5.20;;
74959;SDS011;63518;49.572;1.106;2023-02-07T09:12:41;13.90;;;5.05;;
74959;SDS011;63518;49.572;1.106;2023-02-07T09:15:08;10.95;;;4.75;;
74959;SDS011;63518;49.572;1.106;2023-02-07T09:17:36;11.77;;;4.43;;
74959;SDS011;63518;49.572;1.106;2023-02-07T09:20:03;23.88;;;6.57;;
74959;SDS011;63518;49.572;1.106;2023-02-07T09:22:31;19.10;;;4.82;;
74959;SDS011;63518;49.572;1.106;2023-02-07T09:25:18;16.73;;;6.30;;
74959;SDS011;63518;49.572;1.106;2023-02-07T09:27:46;14.50;;;4.38;;
74959;SDS011;63518;49.572;1.106;2023-02-07T09:30:13;6.00;;;2.35;;
74959;SDS011;63518;49.572;1.106;2023-02-07T09:32:42;14.68;;;5.13;;
74959;SDS011;63518;49.572;1.106;2023-02-07T09:35:09;9.73;;;4.85;;
74959;SDS011;63518;49.572;1.106;2023-02-07T09:37:36;14.13;;;4.65;;
74959;SDS011;63518;49.572;1.106;2023-02-07T09:40:16;10.23;;;3.72;;
74959;SDS011;63518;49.572;1.106;2023-02-07T09:42:56;9.95;;;3.40;;
74959;SDS011;63518;49.572;1.106;2023-02-07T09:45:36;14.43;;;5.35;;
74959;SDS011;63518;49.572;1.106;2023-02-07T09:48:13;10.98;;;2.90;;
74959;SDS011;63518;49.572;1.106;2023-02-07T09:50:50;15.63;;;3.90;;
74959;SDS011;63518;49.572;1.106;2023-02-07T16:16:23;9.77;;;3.53;;
74959;SDS011;63518;49.572;1.106;2023-02-07T16:19:15;9.52;;;4.13;;
74959;SDS011;63518;49.572;1.106;2023-02-07T16:21:54;9.52;;;3.55;;
74959;SDS011;63518;49.572;1.106;2023-02-07T16:24:23;10.23;;;4.10;;
74959;SDS011;63518;49.572;1.106;2023-02-07T16:26:53;8.25;;;3.05;;
74959;SDS011;63518;49.572;1.106;2023-02-07T16:29:22;12.25;;;4.38;;
74959;SDS011;63518;49.572;1.106;2023-02-07T16:31:52;10.38;;;3.30;;
74959;SDS011;63518;49.572;1.106;2023-02-07T16:34:20;9.02;;;3.10;;
74959;SDS011;63518;49.572;1.106;2023-02-07T16:36:53;8.65;;;3.38;;
74959;SDS011;63518;49.572;1.106;2023-02-07T16:39:21;12.07;;;4.70;;
74959;SDS011;63518;49.572;1.106;2023-02-07T16:41:50;8.45;;;3.05;;
74959;SDS011;63518;49.572;1.106;2023-02-07T16:44:24;10.27;;;3.38;;
74959;SDS011;63518;49.572;1.106;2023-02-07T16:46:53;8.77;;;3.25;;
74959;SDS011;63518;49.572;1.106;2023-02-07T16:49:21;8.30;;;2.90;;
74959;SDS011;63518;49.572;1.106;2023-02-07T16:51:54;9.18;;;3.10;;
74959;SDS011;63518;49.572;1.106;2023-02-07T16:54:22;8.93;;;3.40;;
74959;SDS011;63518;49.572;1.106;2023-02-07T16:56:52;9.27;;;3.17;;
74959;SDS011;63518;49.572;1.106;2023-02-07T16:59:22;9.15;;;4.28;;
74959;SDS011;63518;49.572;1.106;2023-02-07T17:01:52;6.75;;;2.67;;
74959;SDS011;63518;49.572;1.106;2023-02-07T17:04:23;9.60;;;3.78;;
74959;SDS011;63518;49.572;1.106;2023-02-07T17:06:57;6.55;;;2.65;;
74959;SDS011;63518;49.572;1.106;2023-02-07T17:09:25;7.75;;;2.85;;
74959;SDS011;63518;49.572;1.106;2023-02-07T17:11:52;10.25;;;3.10;;
74959;SDS011;63518;49.572;1.106;2023-02-07T17:14:20;7.68;;;2.75;;
74959;SDS011;63518;49.572;1.106;2023-02-07T17:16:48;4.97;;;1.95;;
74959;SDS011;63518;49.572;1.106;2023-02-07T17:19:19;10.50;;;2.75;;
74959;SDS011;63518;49.572;1.106;2023-02-07T17:21:55;6.97;;;3.05;;
74959;SDS011;63518;49.572;1.106;2023-02-07T17:24:23;6.80;;;2.95;;
74959;SDS011;63518;49.572;1.106;2023-02-07T17:26:53;6.68;;;2.85;;
74959;SDS011;63518;49.572;1.106;2023-02-07T17:29:22;6.07;;;2.03;;
74959;SDS011;63518;49.572;1.106;2023-02-07T17:31:50;7.88;;;3.30;;
74959;SDS011;63518;49.572;1.106;2023-02-07T17:34:21;8.32;;;3.28;;
74959;SDS011;63518;49.572;1.106;2023-02-07T17:36:48;3.85;;;1.50;;
74959;SDS011;63518;49.572;1.106;2023-02-07T17:39:17;6.35;;;2.33;;
74959;SDS011;63518;49.572;1.106;2023-02-07T17:41:48;5.53;;;2.05;;
74959;SDS011;63518;49.572;1.106;2023-02-07T17:44:18;9.38;;;2.72;;
74959;SDS011;63518;49.572;1.106;2023-02-07T17:46:49;7.20;;;2.88;;
74959;SDS011;63518;49.572;1.106;2023-02-07T17:49:19;7.15;;;2.85;;
74959;SDS011;63518;49.572;1.106;2023-02-07T17:51:46;15.05;;;4.35;;
74959;SDS011;63518;49.572;1.106;2023-02-07T17:54:13;8.38;;;3.63;;
74959;SDS011;63518;49.572;1.106;2023-02-07T17:56:42;9.63;;;4.05;;
74959;SDS011;63518;49.572;1.106;2023-02-07T17:59:14;8.75;;;3.03;;
74959;SDS011;63518;49.572;1.106;2023-02-07T18:01:49;9.23;;;3.13;;
74959;SDS011;63518;49.572;1.106;2023-02-07T18:04:16;8.57;;;2.53;;
74959;SDS011;63518;49.572;1.106;2023-02-07T18:06:44;7.40;;;2.47;;
74959;SDS011;63518;49.572;1.106;2023-02-07T18:09:15;8.52;;;2.40;;
74959;SDS011;63518;49.572;1.106;2023-02-07T18:11:44;7.78;;;3.22;;
74959;SDS011;63518;49.572;1.106;2023-02-07T18:14:14;9.15;;;3.30;;
74959;SDS011;63518;49.572;1.106;2023-02-07T18:16:41;4.45;;;1.95;;
74959;SDS011;63518;49.572;1.106;2023-02-07T18:19:09;7.45;;;2.78;;
74959;SDS011;63518;49.572;1.106;2023-02-07T18:21:41;7.75;;;2.65;;
74959;SDS011;63518;49.572;1.106;2023-02-07T18:24:08;7.03;;;2.15;;
74959;SDS011;63518;49.572;1.106;2023-02-07T18:26:36;8.05;;;2.60;;
74959;SDS011;63518;49.572;1.106;2023-02-07T18:29:03;6.93;;;2.53;;
74959;SDS011;63518;49.572;1.106;2023-02-07T18:31:30;7.45;;;2.67;;
74959;SDS011;63518;49.572;1.106;2023-02-07T18:33:57;9.23;;;2.15;;
74959;SDS011;63518;49.572;1.106;2023-02-07T18:36:25;6.53;;;2.70;;
74959;SDS011;63518;49.572;1.106;2023-02-07T18:38:56;8.65;;;3.25;;
74959;SDS011;63518;49.572;1.106;2023-02-07T18:41:23;7.07;;;2.25;;
74959;SDS011;63518;49.572;1.106;2023-02-07T18:43:52;9.93;;;3.78;;
74959;SDS011;63518;49.572;1.106;2023-02-07T18:46:20;9.45;;;3.20;;
74959;SDS011;63518;49.572;1.106;2023-02-07T18:48:52;6.00;;;2.50;;
74959;SDS011;63518;49.572;1.106;2023-02-07T18:51:21;4.40;;;1.70;;
74959;SDS011;63518;49.572;1.106;2023-02-07T18:53:50;6.00;;;1.95;;
74959;SDS011;63518;49.572;1.106;2023-02-07T18:56:20;4.75;;;1.75;;
74959;SDS011;63518;49.572;1.106;2023-02-07T18:58:49;7.15;;;2.33;;
74959;SDS011;63518;49.572;1.106;2023-02-07T19:01:23;8.07;;;2.83;;
74959;SDS011;63518;49.572;1.106;2023-02-07T19:03:53;6.53;;;3.03;;
74959;SDS011;63518;49.572;1.106;2023-02-07T19:06:22;7.53;;;2.97;;
74959;SDS011;63518;49.572;1.106;2023-02-07T19:08:52;7.55;;;2.63;;
74959;SDS011;63518;49.572;1.106;2023-02-07T19:11:19;5.88;;;2.03;;
74959;SDS011;63518;49.572;1.106;2023-02-07T19:13:46;6.07;;;2.58;;
74959;SDS011;63518;49.572;1.106;2023-02-07T19:16:15;5.70;;;2.25;;
74959;SDS011;63518;49.572;1.106;2023-02-07T19:18:44;7.50;;;3.08;;
74959;SDS011;63518;49.572;1.106;2023-02-07T19:21:13;8.88;;;3.08;;
74959;SDS011;63518;49.572;1.106;2023-02-07T19:23:44;7.38;;;2.97;;
74959;SDS011;63518;49.572;1.106;2023-02-07T19:26:12;11.38;;;4.25;;
74959;SDS011;63518;49.572;1.106;2023-02-07T19:28:39;7.03;;;3.55;;
74959;SDS011;63518;49.572;1.106;2023-02-07T19:31:12;9.98;;;3.85;;
74959;SDS011;63518;49.572;1.106;2023-02-07T19:33:44;6.80;;;3.05;;
74959;SDS011;63518;49.572;1.106;2023-02-07T19:36:15;6.82;;;3.30;;
74959;SDS011;63518;49.572;1.106;2023-02-07T19:38:43;7.93;;;3.10;;
74959;SDS011;63518;49.572;1.106;2023-02-07T19:41:10;9.30;;;3.78;;
74959;SDS011;63518;49.572;1.106;2023-02-07T19:43:37;8.52;;;3.78;;
74959;SDS011;63518;49.572;1.106;2023-02-07T19:46:06;10.23;;;2.97;;
74959;SDS011;63518;49.572;1.106;2023-02-07T19:48:34;9.13;;;3.70;;
74959;SDS011;63518;49.572;1.106;2023-02-07T19:51:02;6.82;;;2.65;;
74959;SDS011;63518;49.572;1.106;2023-02-07T19:53:34;9.02;;;3.70;;
74959;SDS011;63518;49.572;1.106;2023-02-07T19:56:06;9.00;;;3.53;;
74959;SDS011;63518;49.572;1.106;2023-02-07T19:58:38;9.98;;;4.10;;
74959;SDS011;63518;49.572;1.106;2023-02-07T20:01:13;8.55;;;3.83;;
74959;SDS011;63518;49.572;1.106;2023-02-07T20:03:40;12.80;;;4.75;;
74959;SDS011;63518;49.572;1.106;2023-02-07T20:06:13;7.45;;;3.45;;
74959;SDS011;63518;49.572;1.106;2023-02-07T20:09:04;9.80;;;2.95;;
74959;SDS011;63518;49.572;1.106;2023-02-07T20:11:34;10.50;;;4.40;;
74959;SDS011;63518;49.572;1.106;2023-02-07T20:14:01;8.07;;;3.30;;
74959;SDS011;63518;49.572;1.106;2023-02-07T20:16:33;12.57;;;3.35;;
74959;SDS011;63518;49.572;1.106;2023-02-07T20:19:05;7.20;;;3.03;;
74959;SDS011;63518;49.572;1.106;2023-02-07T20:21:33;8.32;;;3.17;;
74959;SDS011;63518;49.572;1.106;2023-02-07T20:24:03;8.77;;;3.45;;
74959;SDS011;63518;49.572;1.106;2023-02-07T20:26:40;6.93;;;2.50;;
74959;SDS011;63518;49.572;1.106;2023-02-07T20:29:11;8.80;;;2.50;;
74959;SDS011;63518;49.572;1.106;2023-02-07T20:31:41;12.32;;;2.85;;
74959;SDS011;63518;49.572;1.106;2023-02-07T20:34:12;12.98;;;3.45;;
74959;SDS011;63518;49.572;1.106;2023-02-07T20:36:40;6.60;;;2.53;;
74959;SDS011;63518;49.572;1.106;2023-02-07T20:39:10;7.15;;;3.38;;
74959;SDS011;63518;49.572;1.106;2023-02-07T20:41:40;9.95;;;2.90;;
74959;SDS011;63518;49.572;1.106;2023-02-07T20:44:13;6.80;;;2.47;;
74959;SDS011;63518;49.572;1.106;2023-02-07T20:46:46;6.18;;;2.05;;
74959;SDS011;63518;49.572;1.106;2023-02-07T20:49:16;6.18;;;1.80;;
74959;SDS011;63518;49.572;1.106;2023-02-07T20:51:53;7.85;;;2.20;;
74959;SDS011;63518;49.572;1.106;2023-02-07T20:54:22;10.98;;;2.58;;
74959;SDS011;63518;49.572;1.106;2023-02-07T20:56:52;7.55;;;2.85;;
74959;SDS011;63518;49.572;1.106;2023-02-07T20:59:24;6.85;;;2.63;;
74959;SDS011;63518;49.572;1.106;2023-02-07T21:01:55;6.47;;;2.25;;
74959;SDS011;63518;49.572;1.106;2023-02-07T21:04:26;5.68;;;2.15;;
74959;SDS011;63518;49.572;1.106;2023-02-07T21:06:55;8.27;;;2.40;;
74959;SDS011;63518;49.572;1.106;2023-02-07T21:09:23;8.23;;;3.20;;
74959;SDS011;63518;49.572;1.106;2023-02-07T21:11:51;10.15;;;3.20;;
74959;SDS011;63518;49.572;1.106;2023-02-07T21:16:52;7.93;;;2.75;;
74959;SDS011;63518;49.572;1.106;2023-02-07T21:19:22;7.88;;;2.67;;
74959;SDS011;63518;49.572;1.106;2023-02-07T21:21:55;11.57;;;3.97;;
74959;SDS011;63518;49.572;1.106;2023-02-07T21:24:22;7.70;;;2.40;;
74959;SDS011;63518;49.572;1.106;2023-02-07T21:26:51;8.98;;;2.90;;
74959;SDS011;63518;49.572;1.106;2023-02-07T21:29:19;10.18;;;3.95;;
74959;SDS011;63518;49.572;1.106;2023-02-07T21:31:47;12.10;;;3.17;;
74959;SDS011;63518;49.572;1.106;2023-02-07T21:34:16;8.20;;;3.60;;
74959;SDS011;63518;49.572;1.106;2023-02-07T21:36:47;7.32;;;2.33;;
74959;SDS011;63518;49.572;1.106;2023-02-07T21:39:15;11.05;;;3.95;;
74959;SDS011;63518;49.572;1.106;2023-02-07T21:41:43;10.13;;;4.07;;
74959;SDS011;63518;49.572;1.106;2023-02-07T21:44:12;8.90;;;3.05;;
74959;SDS011;63518;49.572;1.106;2023-02-07T21:46:41;9.75;;;3.50;;
74959;SDS011;63518;49.572;1.106;2023-02-07T21:49:13;6.82;;;2.63;;
74959;SDS011;63518;49.572;1.106;2023-02-07T21:51:43;7.88;;;2.60;;
74959;SDS011;63518;49.572;1.106;2023-02-07T21:54:11;7.95;;;3.17;;
74959;SDS011;63518;49.572;1.106;2023-02-07T21:56:42;7.72;;;3.25;;
74959;SDS011;63518;49.572;1.106;2023-02-07T21:59:13;8.93;;;3.45;;
74959;SDS011;63518;49.572;1.106;2023-02-07T22:01:42;8.57;;;3.42;;
74959;SDS011;63518;49.572;1.106;2023-02-07T22:04:13;8.98;;;3.80;;
74959;SDS011;63518;49.572;1.106;2023-02-07T22:06:42;11.00;;;3.70;;
74959;SDS011;63518;49.572;1.106;2023-02-07T22:09:14;8.65;;;2.70;;
74959;SDS011;63518;49.572;1.106;2023-02-07T22:11:43;9.63;;;2.88;;
74959;SDS011;63518;49.572;1.106;2023-02-07T22:14:13;7.18;;;3.38;;
74959;SDS011;63518;49.572;1.106;2023-02-07T22:16:41;5.07;;;1.58;;
74959;SDS011;63518;49.572;1.106;2023-02-07T22:19:11;7.57;;;2.47;;
74959;SDS011;63518;49.572;1.106;2023-02-07T22:21:40;7.65;;;3.08;;
74959;SDS011;63518;49.572;1.106;2023-02-07T22:24:11;5.88;;;2.42;;
74959;SDS011;63518;49.572;1.106;2023-02-07T22:26:42;6.03;;;2.17;;